createdAt,value
2022-12-13T00:02:58.966Z,18.73
2022-12-13T00:08:05.181Z,19.19
2022-12-13T00:13:11.668Z,18.62
2022-12-13T00:18:17.755Z,17.93
2022-12-13T00:23:24.261Z,17.47
2022-12-13T00:28:30.341Z,17.77
2022-12-13T00:33:36.594Z,17.87
2022-12-13T00:38:42.843Z,17.53
2022-12-13T00:43:49.034Z,17.26
2022-12-13T00:48:55.880Z,17.21
2022-12-13T00:54:02.063Z,16.23
2022-12-13T00:59:08.180Z,17.15
2022-12-13T01:04:14.622Z,16.55
2022-12-13T01:09:20.720Z,16.00
2022-12-13T01:14:26.922Z,16.27
2022-12-13T01:19:32.526Z,16.24
2022-12-13T01:24:38.726Z,16.03
2022-12-13T01:29:44.866Z,16.29
2022-12-13T01:34:51.098Z,15.60
2022-12-13T01:39:58.442Z,16.02
2022-12-13T01:45:02.865Z,16.48
2022-12-13T01:50:08.975Z,16.83
2022-12-13T01:55:15.202Z,17.39
2022-12-13T02:00:21.345Z,17.20
2022-12-13T02:05:27.914Z,18.78
2022-12-13T02:10:33.920Z,19.34
2022-12-13T02:15:40.173Z,19.23
2022-12-13T02:20:46.617Z,20.19
2022-12-13T02:25:52.916Z,20.72
2022-12-13T02:31:48.871Z,22.94
2022-12-13T02:36:55.422Z,18.81
2022-12-13T02:42:01.476Z,18.50
2022-12-13T02:47:12.566Z,18.48
2022-12-13T02:52:14.018Z,19.42
2022-12-13T02:57:21.673Z,20.05
2022-12-13T03:02:31.569Z,19.79
2022-12-13T03:07:31.070Z,20.04
2022-12-13T03:12:37.209Z,20.90
2022-12-13T03:17:43.035Z,19.76
2022-12-13T03:22:49.172Z,20.35
2022-12-13T03:27:55.320Z,19.77
2022-12-13T03:33:00.963Z,19.56
2022-12-13T03:38:07.161Z,20.25
2022-12-13T03:43:13.373Z,20.72
2022-12-13T03:48:21.970Z,20.97
2022-12-13T03:53:32.130Z,20.44
2022-12-13T03:58:35.449Z,21.36
2022-12-13T04:03:36.490Z,20.97
2022-12-13T04:08:42.781Z,20.08
2022-12-13T04:13:48.833Z,19.69
2022-12-13T04:18:55.010Z,19.12
2022-12-13T04:24:01.379Z,19.43
2022-12-13T04:29:07.281Z,19.58
2022-12-13T04:34:13.488Z,20.38
2022-12-13T04:39:21.965Z,19.51
2022-12-13T04:44:28.700Z,18.40
2022-12-13T04:49:31.109Z,18.59
2022-12-13T04:54:37.947Z,18.18
2022-12-13T04:59:44.182Z,18.15
2022-12-13T05:04:53.838Z,18.93
2022-12-13T05:09:55.963Z,19.00
2022-12-13T05:15:02.098Z,18.44
2022-12-13T05:20:08.286Z,18.20
2022-12-13T05:25:17.252Z,18.00
2022-12-13T05:30:23.154Z,18.20
2022-12-13T05:35:29.221Z,17.91
2022-12-13T05:40:35.468Z,18.34
2022-12-13T05:45:42.050Z,16.52
2022-12-13T05:50:48.157Z,17.67
2022-12-13T05:55:54.301Z,17.35
2022-12-13T06:01:00.577Z,17.43
2022-12-13T06:06:10.114Z,17.14
2022-12-13T06:11:31.405Z,16.03
2022-12-13T06:16:24.376Z,16.82
2022-12-13T06:21:29.608Z,16.52
2022-12-13T06:26:33.908Z,16.23
2022-12-13T06:31:40.186Z,16.02
2022-12-13T06:36:46.330Z,16.18
2022-12-13T06:41:52.539Z,17.09
2022-12-13T06:47:11.740Z,17.57
2022-12-13T06:52:04.301Z,16.88
2022-12-13T06:57:10.455Z,16.32
2022-12-13T07:02:25.003Z,16.04
2022-12-13T07:07:22.373Z,16.24
2022-12-13T07:12:28.575Z,16.43
2022-12-13T07:17:34.779Z,16.63
2022-12-13T07:22:47.202Z,17.33
2022-12-13T07:27:46.480Z,17.27
2022-12-13T07:32:52.611Z,16.59
2022-12-13T07:37:58.667Z,16.05
2022-12-13T07:43:04.935Z,15.84
2022-12-13T07:48:11.757Z,17.12
2022-12-13T07:53:18.165Z,16.31
2022-12-13T07:58:23.489Z,16.79
2022-12-13T08:03:29.799Z,16.08
2022-12-13T08:08:36.075Z,16.13
2022-12-13T08:13:42.182Z,15.40
2022-12-13T08:18:48.358Z,16.03
2022-12-13T08:23:54.577Z,16.29
2022-12-13T08:29:00.652Z,16.72
2022-12-13T08:34:06.790Z,16.12
2022-12-13T08:39:12.867Z,16.25
2022-12-13T08:44:19.328Z,16.19
2022-12-13T08:49:25.482Z,16.23
2022-12-13T08:54:31.939Z,15.78
2022-12-13T08:59:37.849Z,15.43
2022-12-13T09:04:44.013Z,16.24
2022-12-13T09:09:55.121Z,17.41
2022-12-13T09:15:01.297Z,16.43
2022-12-13T09:20:01.560Z,16.23
2022-12-13T09:25:07.236Z,17.17
2022-12-13T09:30:12.837Z,16.56
2022-12-13T09:35:19.120Z,17.15
2022-12-13T09:40:37.484Z,16.78
2022-12-13T09:45:32.054Z,16.19
2022-12-13T09:50:38.550Z,16.69
2022-12-13T09:55:42.068Z,16.72
2022-12-13T10:00:48.204Z,16.24
2022-12-13T10:05:54.486Z,16.67
2022-12-13T10:11:00.658Z,16.64
2022-12-13T10:16:06.881Z,16.67
2022-12-13T10:21:12.891Z,17.26
2022-12-13T10:26:55.014Z,19.65
2022-12-13T10:32:01.010Z,17.43
2022-12-13T10:37:06.790Z,17.82
2022-12-13T10:42:12.944Z,17.36
2022-12-13T10:47:18.744Z,16.89
2022-12-13T10:52:30.923Z,17.51
2022-12-13T10:57:30.614Z,16.98
2022-12-13T11:02:36.869Z,16.95
2022-12-13T11:07:42.993Z,16.83
2022-12-13T11:12:49.105Z,17.08
2022-12-13T11:17:57.472Z,17.84
2022-12-13T11:23:44.862Z,20.72
2022-12-13T11:28:51.046Z,18.61
2022-12-13T11:33:57.552Z,18.78
2022-12-13T11:39:03.716Z,18.96
2022-12-13T11:44:09.927Z,20.20
2022-12-13T11:49:16.111Z,18.96
2022-12-13T11:54:23.625Z,19.92
2022-12-13T11:59:28.307Z,19.41
2022-12-13T12:04:33.523Z,20.42
2022-12-13T12:09:39.838Z,20.24
2022-12-13T12:14:46.004Z,21.54
2022-12-13T12:19:52.254Z,21.06
2022-12-13T12:24:58.292Z,21.62
2022-12-13T12:30:04.481Z,23.50
2022-12-13T12:35:10.542Z,22.80
2022-12-13T12:40:16.406Z,23.78
2022-12-13T12:50:46.233Z,37.06
2022-12-13T12:55:52.299Z,23.60
2022-12-13T13:00:58.471Z,23.90
2022-12-13T13:06:04.541Z,23.49
2022-12-13T13:11:25.139Z,24.36
2022-12-13T13:16:16.613Z,23.48
2022-12-13T13:21:22.748Z,24.11
2022-12-13T13:26:34.325Z,23.40
2022-12-13T13:31:34.675Z,24.33
2022-12-13T13:36:40.769Z,22.83
2022-12-13T13:41:47.090Z,22.39
2022-12-13T13:46:53.186Z,22.71
2022-12-13T13:52:25.056Z,22.53
2022-12-13T13:57:05.030Z,22.85
2022-12-13T14:02:11.307Z,22.62
2022-12-13T14:07:20.835Z,22.14
2022-12-13T14:12:23.295Z,23.59
2022-12-13T14:17:29.374Z,22.20
2022-12-13T14:22:35.555Z,21.63
2022-12-13T14:27:41.624Z,21.33
2022-12-13T14:32:47.847Z,22.13
2022-12-13T14:37:53.923Z,22.40
2022-12-13T14:42:59.616Z,20.60
2022-12-13T14:48:05.802Z,20.56
2022-12-13T14:53:12.030Z,19.95
2022-12-13T14:58:18.105Z,20.58
2022-12-13T15:03:26.239Z,20.26
2022-12-13T15:08:31.493Z,20.43
2022-12-13T15:13:37.747Z,20.47
2022-12-13T15:18:50.441Z,19.95
2022-12-13T15:23:50.023Z,21.96
2022-12-13T15:28:55.846Z,25.34
2022-12-13T15:34:02.089Z,22.67
2022-12-13T15:39:08.230Z,23.87
2022-12-13T15:44:14.434Z,25.25
2022-12-13T15:49:20.599Z,36.64
2022-12-13T15:54:27.204Z,25.12
2022-12-13T15:59:33.654Z,24.29
2022-12-13T16:04:39.866Z,25.03
2022-12-13T16:09:46.042Z,24.14
2022-12-13T16:14:52.241Z,24.71
2022-12-13T16:19:57.917Z,24.69
2022-12-13T16:25:04.352Z,24.90
2022-12-13T16:30:10.451Z,24.00
2022-12-13T16:35:16.636Z,25.05
2022-12-13T16:40:22.699Z,22.48
2022-12-13T16:45:42.277Z,23.14
2022-12-13T16:50:34.595Z,22.85
2022-12-13T16:55:41.112Z,25.05
2022-12-13T17:00:47.307Z,24.91
2022-12-13T17:05:58.681Z,24.82
2022-12-13T17:10:59.089Z,24.07
2022-12-13T17:16:05.293Z,26.05
2022-12-13T17:21:11.452Z,26.99
2022-12-13T17:26:17.724Z,26.87
2022-12-13T17:31:23.864Z,27.42
2022-12-13T17:36:30.017Z,27.11
2022-12-13T17:41:36.168Z,28.11
2022-12-13T17:46:42.766Z,29.74
2022-12-13T17:51:51.416Z,28.03
2022-12-13T17:56:54.540Z,26.80
2022-12-13T18:02:02.819Z,26.65
2022-12-13T18:07:09.003Z,27.30
2022-12-13T18:12:15.131Z,27.27
2022-12-13T18:17:22.610Z,27.01
2022-12-13T18:22:27.421Z,25.20
2022-12-13T18:27:33.617Z,24.10
2022-12-13T18:32:39.688Z,23.48
2022-12-13T18:37:45.830Z,22.15
2022-12-13T18:42:51.926Z,22.10
2022-12-13T18:47:58.265Z,22.75
2022-12-13T18:53:04.326Z,22.33
2022-12-13T18:58:10.580Z,21.84
2022-12-13T19:03:16.697Z,21.38
2022-12-13T19:08:23.228Z,20.62
2022-12-13T19:13:30.031Z,20.83
2022-12-13T19:18:35.591Z,21.05
2022-12-13T19:23:42.712Z,20.75
2022-12-13T19:28:47.591Z,19.92
2022-12-13T19:33:53.691Z,20.27
2022-12-13T19:38:59.960Z,19.27
2022-12-13T19:44:06.017Z,19.23
2022-12-13T19:49:12.169Z,19.45
2022-12-13T19:54:18.314Z,19.39
2022-12-13T19:59:24.528Z,19.33
2022-12-13T20:04:30.712Z,18.75
2022-12-13T20:09:36.921Z,19.00
2022-12-13T20:14:43.082Z,18.24
2022-12-13T20:19:49.345Z,18.30
2022-12-13T20:24:55.440Z,18.20
2022-12-13T20:30:01.611Z,18.96
2022-12-13T20:35:07.756Z,18.51
2022-12-13T20:40:13.980Z,18.57
2022-12-13T20:45:20.035Z,19.24
2022-12-13T20:50:26.180Z,19.13
2022-12-13T20:55:35.781Z,18.29
2022-12-13T21:00:42.436Z,17.94
2022-12-13T21:05:48.681Z,19.20
2022-12-13T21:10:54.832Z,18.50
2022-12-13T21:16:01.004Z,18.89
2022-12-13T21:21:07.180Z,19.15
2022-12-13T21:26:13.307Z,18.54
2022-12-13T21:31:19.598Z,18.97
2022-12-13T21:36:25.614Z,18.79
2022-12-13T21:41:31.785Z,19.08
2022-12-13T21:51:48.220Z,19.25
2022-12-13T21:57:31.254Z,20.96
2022-12-13T22:02:37.611Z,18.90
2022-12-13T22:07:43.685Z,18.80
2022-12-13T22:12:49.388Z,18.27
2022-12-13T22:17:55.543Z,17.45
2022-12-13T22:23:01.747Z,17.14
2022-12-13T22:28:07.911Z,17.73
2022-12-13T22:33:14.131Z,17.40
2022-12-13T22:38:20.313Z,17.55
2022-12-13T22:43:26.611Z,17.46
2022-12-13T22:48:32.721Z,17.36
2022-12-13T22:53:38.922Z,16.71
2022-12-13T22:58:45.030Z,16.84
2022-12-13T23:03:51.579Z,16.77
2022-12-13T23:08:58.437Z,16.14
2022-12-13T23:14:04.800Z,15.90
2022-12-13T23:19:40.475Z,16.47
2022-12-13T23:24:16.536Z,15.74
2022-12-13T23:29:22.696Z,16.67
2022-12-13T23:34:29.772Z,15.93
2022-12-13T23:39:35.836Z,16.19
2022-12-13T23:45:28.540Z,18.90
2022-12-13T23:50:34.598Z,16.31
2022-12-13T23:55:41.148Z,15.30
